Time;durP1;ratioP1;P1;durP2;ratioP2;P2;SDS_P1;SDS_P2;PMS_P1;PMS_P2;Temp;Humidity;BMP_temperature;BMP_pressure;BME280_temperature;BME280_humidity;BME280_pressure;Samples;Min_cycle;Max_cycle;Signal;HPM_P1;HPM_P2
2023/07/21 00:02:14;;;;;;;1.90;1.60;;;;;;;18.08;100.00;101191.22;4926002;29;20051;-64
2023/07/21 00:04:40;;;;;;;4.88;1.60;;;;;;;18.05;100.00;101188.94;4923993;29;20059;-63
2023/07/21 00:07:07;;;;;;;1.73;1.50;;;;;;;18.03;100.00;101180.34;4912735;29;20047;-64
2023/07/21 00:09:33;;;;;;;2.33;1.48;;;;;;;18.03;100.00;101184.84;4925185;29;20600;-63
2023/07/21 00:11:59;;;;;;;3.28;1.75;;;;;;;17.97;100.00;101186.41;4927532;29;20478;-65
2023/07/21 00:14:28;;;;;;;4.32;1.77;;;;;;;17.94;100.00;101187.59;4917071;29;20115;-65
2023/07/21 00:16:54;;;;;;;;;;;;;;;17.95;100.00;101183.94;4916799;29;20106;-63
2023/07/21 00:19:21;;;;;;;2.63;1.80;;;;;;;17.92;100.00;101183.50;4931313;29;19977;-64
2023/07/21 00:21:47;;;;;;;4.13;1.73;;;;;;;17.87;100.00;101181.38;4911614;29;20052;-63
2023/07/21 00:24:14;;;;;;;4.07;1.80;;;;;;;17.87;100.00;101185.88;4927608;29;20095;-63
2023/07/21 00:26:41;;;;;;;2.47;1.67;;;;;;;17.84;100.00;101183.56;4919285;29;20159;-63
2023/07/21 00:29:07;;;;;;;2.15;1.58;;;;;;;17.79;100.00;101174.31;4904253;29;20095;-64
2023/07/21 00:31:35;;;;;;;5.85;1.60;;;;;;;17.81;100.00;101176.78;4916250;29;20052;-65
2023/07/21 00:34:08;;;;;;;3.03;1.63;;;;;;;17.80;100.00;101180.47;4929680;29;20714;-63
2023/07/21 00:36:34;;;;;;;4.55;1.90;;;;;;;17.77;99.65;101170.22;4929543;29;20047;-64
2023/07/21 00:39:03;;;;;;;2.90;1.40;;;;;;;17.78;98.07;101174.53;4904952;29;20048;-64
2023/07/21 00:41:29;;;;;;;;;;;;;;;17.80;97.21;101180.47;4925214;29;20055;-65
2023/07/21 00:43:55;;;;;;;2.35;1.60;;;;;;;17.78;96.40;101167.38;4918373;29;19926;-64
2023/07/21 00:46:23;;;;;;;3.30;1.60;;;;;;;17.78;98.21;101171.88;4928560;29;20055;-64
2023/07/21 00:48:51;;;;;;;2.95;1.33;;;;;;;17.78;98.07;101166.56;4921124;29;20062;-64
2023/07/21 00:51:18;;;;;;;3.90;1.58;;;;;;;17.79;96.95;101165.53;4929642;29;20115;-64
2023/07/21 00:53:45;;;;;;;1.92;1.42;;;;;;;17.73;98.87;101158.31;4928575;29;20107;-64
2023/07/21 00:56:12;;;;;;;1.65;1.40;;;;;;;17.68;100.00;101163.34;4918472;29;20083;-63
2023/07/21 00:58:39;;;;;;;3.10;1.45;;;;;;;17.64;100.00;101154.13;4915119;29;20055;-63
2023/07/21 01:01:06;;;;;;;2.92;1.60;;;;;;;17.60;100.00;101156.31;4902170;29;20088;-66
2023/07/21 01:03:35;;;;;;;1.60;1.50;;;;;;;17.56;100.00;101155.03;4928107;29;20055;-63
2023/07/21 01:06:03;;;;;;;2.25;1.40;;;;;;;17.53;100.00;101155.44;4925916;29;20598;-63
2023/07/21 01:08:29;;;;;;;3.22;1.70;;;;;;;17.50;100.00;101143.34;4910730;29;20406;-66
2023/07/21 01:10:57;;;;;;;3.08;1.40;;;;;;;17.48;100.00;101150.66;4908225;29;20067;-64
2023/07/21 01:13:24;;;;;;;2.30;1.50;;;;;;;17.46;100.00;101150.00;4926633;29;20507;-66
2023/07/21 01:15:53;;;;;;;3.03;1.63;;;;;;;17.44;100.00;101159.16;4928704;29;20436;-64
2023/07/21 01:18:20;;;;;;;2.05;1.50;;;;;;;17.43;100.00;101157.53;4921417;29;20074;-63
2023/07/21 01:20:48;;;;;;;2.97;1.53;;;;;;;17.41;100.00;101156.91;4929602;29;20544;-63
2023/07/21 01:23:24;;;;;;;3.42;1.40;;;;;;;17.38;100.00;101144.81;4918459;29;20075;-64
2023/07/21 01:25:52;;;;;;;2.25;1.40;;;;;;;17.34;100.00;101143.53;4922554;29;20872;-64
2023/07/21 01:28:19;;;;;;;4.07;1.90;;;;;;;17.30;100.00;101135.13;4921678;29;20089;-63
2023/07/21 01:30:48;;;;;;;2.20;1.60;;;;;;;17.28;100.00;101139.78;4928257;29;20055;-63
2023/07/21 01:33:20;;;;;;;2.17;1.42;;;;;;;17.23;100.00;101130.72;4930190;29;20044;-64
2023/07/21 01:35:48;;;;;;;2.78;1.40;;;;;;;17.25;100.00;101134.88;4921850;29;20051;-65
2023/07/21 01:38:19;;;;;;;2.13;1.50;;;;;;;17.24;100.00;101133.19;4924266;29;20524;-64
2023/07/21 01:40:46;;;;;;;2.58;1.55;;;;;;;17.17;100.00;101130.47;4920416;29;20059;-64
2023/07/21 01:43:14;;;;;;;1.65;1.30;;;;;;;17.20;100.00;101126.63;4928253;29;20139;-63
2023/07/21 01:45:42;;;;;;;3.67;1.42;;;;;;;17.20;100.00;101124.78;4918802;29;20048;-63
2023/07/21 01:48:09;;;;;;;1.73;1.40;;;;;;;17.17;100.00;101117.22;4928395;29;20052;-63
2023/07/21 01:50:39;;;;;;;3.53;1.57;;;;;;;17.15;100.00;101113.09;4910034;29;20756;-66
2023/07/21 01:53:15;;;;;;;2.80;1.50;;;;;;;17.11;100.00;101110.00;4911975;29;20059;-64
2023/07/21 01:55:51;;;;;;;3.25;1.60;;;;;;;17.04;100.00;101110.91;4925121;29;20047;-64
2023/07/21 01:58:18;;;;;;;3.35;1.48;;;;;;;17.02;100.00;101118.22;4912464;29;20059;-63
2023/07/21 02:00:47;;;;;;;2.95;1.52;;;;;;;16.96;100.00;101119.75;4928693;29;20051;-64
2023/07/21 02:03:17;;;;;;;1.20;1.08;;;;;;;16.91;100.00;101109.69;4921021;29;20585;-63
2023/07/21 02:05:45;;;;;;;2.88;1.92;;;;;;;16.81;100.00;101106.44;4923417;29;20130;-63
2023/07/21 02:08:11;;;;;;;3.80;1.60;;;;;;;16.77;100.00;101111.28;4918055;29;20746;-63
2023/07/21 02:10:38;;;;;;;2.63;1.40;;;;;;;16.72;100.00;101111.03;4927901;29;20110;-63
2023/07/21 02:13:05;;;;;;;1.83;1.40;;;;;;;16.71;100.00;101105.91;4926588;29;20055;-64
2023/07/21 02:15:32;;;;;;;4.25;1.40;;;;;;;16.66;100.00;101111.75;4904461;29;20060;-64
2023/07/21 02:17:58;;;;;;;2.20;1.58;;;;;;;16.61;100.00;101106.16;4916821;29;20052;-67
2023/07/21 02:20:25;;;;;;;4.22;1.42;;;;;;;16.61;100.00;101106.97;4932940;29;20043;-67
2023/07/21 02:22:52;;;;;;;2.33;1.45;;;;;;;16.64;100.00;101100.50;4949102;29;20043;-67
2023/07/21 02:25:18;;;;;;;3.28;1.45;;;;;;;16.69;100.00;101097.31;4946608;29;20119;-67
2023/07/21 02:27:44;;;;;;;2.95;1.67;;;;;;;16.71;100.00;101101.41;4949573;29;20040;-67
2023/07/21 02:30:11;;;;;;;2.95;1.58;;;;;;;16.75;100.00;101101.88;4951000;29;20052;-67
2023/07/21 02:32:38;;;;;;;2.80;1.92;;;;;;;16.76;100.00;101095.59;4938947;29;20028;-67
2023/07/21 02:35:05;;;;;;;4.47;1.50;;;;;;;16.67;100.00;101096.66;4945966;29;20071;-67
2023/07/21 02:37:34;;;;;;;2.10;1.50;;;;;;;16.61;100.00;101101.66;4946094;28;20052;-68
2023/07/21 02:40:01;;;;;;;3.10;1.60;;;;;;;16.57;100.00;101096.91;4952961;29;20040;-67
2023/07/21 02:42:27;;;;;;;3.42;1.75;;;;;;;16.53;100.00;101096.44;4946271;29;20057;-67
2023/07/21 02:44:53;;;;;;;2.80;1.20;;;;;;;16.46;100.00;101092.84;4954367;29;20334;-67
2023/07/21 02:47:20;;;;;;;2.70;1.70;;;;;;;16.38;100.00;101093.75;4949087;29;20059;-67
2023/07/21 02:49:46;;;;;;;3.28;1.40;;;;;;;16.33;100.00;101092.66;4933565;29;20123;-67
2023/07/21 02:52:13;;;;;;;2.88;1.42;;;;;;;16.31;100.00;101095.47;4953171;29;20048;-67
2023/07/21 02:54:39;;;;;;;3.13;1.70;;;;;;;16.30;100.00;101087.69;4949280;29;20095;-67
2023/07/21 02:57:07;;;;;;;2.10;1.52;;;;;;;16.25;100.00;101092.69;4952662;29;20063;-68
2023/07/21 02:59:34;;;;;;;2.80;1.95;;;;;;;16.18;100.00;101087.28;4947515;29;20043;-64
2023/07/21 03:02:01;;;;;;;1.95;1.65;;;;;;;16.16;100.00;101084.00;4922125;29;20147;-63
2023/07/21 03:04:28;;;;;;;3.53;1.73;;;;;;;16.16;100.00;101079.53;4921777;29;20055;-64
2023/07/21 03:06:55;;;;;;;3.35;1.70;;;;;;;16.15;100.00;101082.34;4923790;29;20421;-63
2023/07/21 03:09:21;;;;;;;3.17;1.52;;;;;;;16.10;100.00;101080.25;4931187;29;20130;-63
2023/07/21 03:11:48;;;;;;;4.07;1.77;;;;;;;16.07;100.00;101093.81;4919878;29;20051;-64
2023/07/21 03:14:14;;;;;;;3.50;1.75;;;;;;;16.03;100.00;101084.56;4909608;29;20047;-63
2023/07/21 03:16:41;;;;;;;1.63;1.45;;;;;;;16.00;100.00;101083.13;4919970;29;20695;-63
2023/07/21 03:19:08;;;;;;;2.65;1.60;;;;;;;16.02;100.00;101075.00;4929970;29;20060;-64
2023/07/21 03:21:34;;;;;;;3.22;1.83;;;;;;;16.00;100.00;101077.81;4931411;29;20517;-64
2023/07/21 03:24:01;;;;;;;7.80;1.85;;;;;;;15.97;100.00;101070.22;4904253;29;20058;-64
2023/07/21 03:26:27;;;;;;;2.90;1.85;;;;;;;15.93;100.00;101082.16;4931251;29;20056;-64
2023/07/21 03:28:55;;;;;;;3.55;1.52;;;;;;;15.85;100.00;101071.63;4920083;29;20048;-64
2023/07/21 03:31:22;;;;;;;1.67;1.55;;;;;;;15.81;100.00;101078.28;4923027;29;20087;-63
2023/07/21 03:33:49;;;;;;;4.03;1.70;;;;;;;15.75;100.00;101085.06;4921658;29;20047;-63
2023/07/21 03:36:15;;;;;;;2.88;1.85;;;;;;;15.68;100.00;101078.81;4931251;29;20052;-64
2023/07/21 03:38:42;;;;;;;3.55;1.88;;;;;;;15.69;100.00;101077.81;4929770;29;20059;-63
2023/07/21 03:41:09;;;;;;;3.42;1.70;;;;;;;15.71;100.00;101085.56;4922820;29;20066;-64
2023/07/21 03:43:41;;;;;;;2.83;1.70;;;;;;;15.67;100.00;101085.09;4923490;29;20051;-64
2023/07/21 03:46:07;;;;;;;4.72;1.98;;;;;;;15.64;100.00;101082.78;4921163;28;20052;-63
2023/07/21 03:48:34;;;;;;;3.83;1.92;;;;;;;15.61;100.00;101077.88;4927586;29;20051;-65
2023/07/21 03:51:03;;;;;;;2.58;1.70;;;;;;;15.57;100.00;101085.31;4922142;29;20469;-62
2023/07/21 03:53:30;;;;;;;3.53;2.10;;;;;;;15.61;100.00;101083.16;4928408;29;20054;-64
2023/07/21 03:56:04;;;;;;;3.92;2.00;;;;;;;15.57;100.00;101076.56;4917128;29;20144;-64
2023/07/21 03:58:30;;;;;;;3.93;2.00;;;;;;;15.58;100.00;101083.47;4923597;29;20054;-64
2023/07/21 04:00:59;;;;;;;3.75;2.08;;;;;;;15.52;100.00;101073.59;4924788;29;20289;-64
2023/07/21 04:03:26;;;;;;;2.60;2.00;;;;;;;15.54;100.00;101077.75;4922286;29;20500;-66
2023/07/21 04:05:52;;;;;;;4.68;2.10;;;;;;;15.51;100.00;101075.44;4928350;29;20130;-65
2023/07/21 04:08:19;;;;;;;1.90;1.70;;;;;;;15.53;100.00;101075.25;4919859;28;20055;-64
2023/07/21 04:10:46;;;;;;;2.75;1.75;;;;;;;15.53;100.00;101068.16;4920892;29;20055;-65
2023/07/21 04:13:12;;;;;;;2.90;1.70;;;;;;;15.48;100.00;101069.66;4916764;29;20504;-64
2023/07/21 04:15:39;;;;;;;3.20;1.70;;;;;;;15.45;100.00;101065.56;4928622;29;20051;-64
2023/07/21 04:18:06;;;;;;;3.63;1.90;;;;;;;15.42;100.00;101057.94;4929121;29;20514;-64
2023/07/21 04:20:32;;;;;;;2.38;1.70;;;;;;;15.39;100.00;101059.13;4922496;29;20047;-64
2023/07/21 04:22:59;;;;;;;6.78;1.80;;;;;;;15.42;100.00;101057.94;4925288;29;20058;-65
2023/07/21 04:25:26;;;;;;;4.13;2.17;;;;;;;15.40;100.00;101063.41;4900743;29;20181;-65
2023/07/21 04:27:54;;;;;;;3.00;1.90;;;;;;;15.44;100.00;101063.88;4928404;29;20062;-65
2023/07/21 04:30:22;;;;;;;3.20;1.83;;;;;;;15.45;100.00;101062.09;4922173;29;20138;-64
2023/07/21 04:32:49;;;;;;;4.78;2.17;;;;;;;15.43;100.00;101049.03;4928279;29;20692;-63
2023/07/21 04:35:16;;;;;;;2.28;1.60;;;;;;;15.56;100.00;101064.31;4913818;29;20130;-64
2023/07/21 04:37:43;;;;;;;3.35;1.98;;;;;;;15.63;100.00;101067.94;4918260;29;20055;-63
2023/07/21 04:40:11;;;;;;;2.92;2.08;;;;;;;15.71;100.00;101065.25;4922095;29;20047;-63
2023/07/21 04:42:39;;;;;;;2.97;1.92;;;;;;;15.78;100.00;101060.94;4918249;29;20106;-64
2023/07/21 04:45:11;;;;;;;5.63;2.00;;;;;;;15.90;100.00;101058.72;4911222;29;20836;-64
2023/07/21 04:47:40;;;;;;;4.60;1.88;;;;;;;15.98;100.00;101056.00;4922956;29;20115;-66
2023/07/21 04:50:08;;;;;;;4.05;2.20;;;;;;;16.05;100.00;101050.81;4928513;29;20134;-63
2023/07/21 04:52:36;;;;;;;6.63;2.00;;;;;;;16.15;100.00;101054.06;4922461;29;20051;-66
2023/07/21 04:55:05;;;;;;;3.92;1.85;;;;;;;16.23;100.00;101058.50;4917393;29;20062;-63
2023/07/21 04:57:32;;;;;;;4.57;1.73;;;;;;;16.24;100.00;101044.22;4928636;29;20417;-63
2023/07/21 04:59:59;;;;;;;2.33;1.95;;;;;;;16.29;100.00;101054.28;4917217;28;20778;-63
2023/07/21 05:02:29;;;;;;;2.95;2.08;;;;;;;16.25;100.00;101048.53;4928443;29;20478;-65
2023/07/21 05:04:57;;;;;;;2.80;2.10;;;;;;;16.28;100.00;101050.81;4909886;29;20055;-66
2023/07/21 05:07:25;;;;;;;2.75;2.00;;;;;;;16.32;100.00;101048.63;4920596;29;20489;-64
2023/07/21 05:09:55;;;;;;;2.53;2.10;;;;;;;16.34;100.00;101052.75;4927614;29;20464;-63
2023/07/21 05:12:24;;;;;;;3.40;1.90;;;;;;;16.39;100.00;101049.59;4921009;29;20051;-63
2023/07/21 05:14:51;;;;;;;3.65;2.33;;;;;;;16.39;100.00;101052.22;4921156;29;20048;-64
2023/07/21 05:17:18;;;;;;;3.35;1.88;;;;;;;16.37;100.00;101049.75;4918812;29;20155;-63
2023/07/21 05:19:45;;;;;;;4.65;2.40;;;;;;;16.37;100.00;101046.28;4921406;29;20474;-64
2023/07/21 05:22:12;;;;;;;8.57;2.20;;;;;;;16.42;100.00;101051.84;4912699;29;20118;-63
2023/07/21 05:24:42;;;;;;;2.88;2.17;;;;;;;16.41;100.00;101058.97;4924930;29;20058;-64
2023/07/21 05:27:10;;;;;;;4.23;2.20;;;;;;;16.41;100.00;101053.69;4925133;28;20060;-64
2023/07/21 05:29:37;;;;;;;3.13;2.10;;;;;;;16.46;100.00;101054.97;4920151;29;20286;-63
2023/07/21 05:32:05;;;;;;;2.83;1.92;;;;;;;16.47;100.00;101059.28;4921450;29;20469;-65
2023/07/21 05:34:32;;;;;;;2.95;1.98;;;;;;;16.48;100.00;101060.91;4915062;29;20488;-66
2023/07/21 05:37:00;;;;;;;3.03;2.30;;;;;;;16.47;100.00;101060.09;4909262;29;20061;-63
2023/07/21 05:39:28;;;;;;;4.28;2.13;;;;;;;16.50;100.00;101057.06;4920185;29;20063;-63
2023/07/21 05:41:56;;;;;;;5.57;2.50;;;;;;;16.55;100.00;101064.50;4924651;29;20457;-63
2023/07/21 05:44:22;;;;;;;4.85;2.45;;;;;;;16.59;100.00;101060.47;4924800;29;20051;-63
2023/07/21 05:46:49;;;;;;;6.97;2.60;;;;;;;16.67;100.00;101068.34;4902785;29;20143;-64
2023/07/21 05:49:16;;;;;;;5.13;2.95;;;;;;;16.73;100.00;101064.16;4923256;29;20421;-63
2023/07/21 05:51:43;;;;;;;14.93;2.67;;;;;;;16.77;100.00;101065.44;4903073;29;20052;-65
2023/07/21 05:54:10;;;;;;;3.50;2.55;;;;;;;16.83;100.00;101054.13;4926505;29;20053;-64
2023/07/21 05:56:38;;;;;;;4.18;2.40;;;;;;;16.91;100.00;101063.81;4914404;29;20052;-64
2023/07/21 05:59:06;;;;;;;5.35;2.85;;;;;;;16.98;100.00;101056.81;4927289;29;20059;-63
2023/07/21 06:01:36;;;;;;;5.50;2.50;;;;;;;17.00;100.00;101063.56;4917946;29;20051;-64
2023/07/21 06:04:05;;;;;;;3.70;2.33;;;;;;;16.97;100.00;101066.59;4905932;29;20052;-63
2023/07/21 06:06:32;;;;;;;4.70;2.25;;;;;;;16.99;100.00;101061.94;4927409;29;20078;-64
2023/07/21 06:08:59;;;;;;;6.10;2.70;;;;;;;17.04;100.00;101064.03;4918484;29;20066;-65
2023/07/21 06:11:26;;;;;;;3.80;2.70;;;;;;;16.99;100.00;101056.63;4916751;29;20056;-65
2023/07/21 06:13:56;;;;;;;3.95;2.33;;;;;;;17.00;100.00;101052.16;4900857;29;20058;-64
2023/07/21 06:16:23;;;;;;;4.53;2.42;;;;;;;17.01;100.00;101051.13;4918889;29;20114;-63
2023/07/21 06:18:51;;;;;;;2.22;2.03;;;;;;;17.12;100.00;101058.63;4921522;29;20056;-64
2023/07/21 06:21:20;;;;;;;5.40;2.17;;;;;;;17.18;100.00;101067.66;4925898;29;20123;-63
2023/07/21 06:23:47;;;;;;;3.58;2.33;;;;;;;17.27;100.00;101065.72;4908401;29;20135;-63
2023/07/21 06:26:14;;;;;;;5.43;2.75;;;;;;;17.24;98.72;101066.94;4919605;29;20063;-64
2023/07/21 06:28:41;;;;;;;4.38;2.50;;;;;;;17.33;100.00;101070.31;4921969;29;20135;-63
2023/07/21 06:31:09;;;;;;;4.35;2.80;;;;;;;17.27;96.54;101074.53;4916326;29;20062;-63
2023/07/21 06:33:36;;;;;;;;;;;;;;;17.20;97.27;101070.97;4928658;29;20058;-64
2023/07/21 06:36:02;;;;;;;4.72;2.33;;;;;;;17.25;99.36;101059.78;4909423;29;19941;-63
2023/07/21 06:38:29;;;;;;;5.53;2.50;;;;;;;17.32;97.82;101055.41;4917796;29;20521;-63
2023/07/21 06:40:55;;;;;;;3.53;2.50;;;;;;;17.31;93.74;101051.94;4927157;29;20102;-63
2023/07/21 06:43:22;;;;;;;3.60;2.28;;;;;;;17.42;95.20;101060.41;4915207;29;20782;-63
2023/07/21 06:45:49;;;;;;;5.30;2.20;;;;;;;17.46;95.36;101051.91;4920533;29;20060;-62
2023/07/21 06:48:15;;;;;;;4.43;2.25;;;;;;;17.48;92.82;101051.72;4915542;29;20485;-64
2023/07/21 06:50:41;;;;;;;8.20;2.42;;;;;;;17.49;88.02;101045.41;4924462;29;20052;-63
2023/07/21 06:53:08;;;;;;;3.13;2.00;;;;;;;17.52;87.21;101045.88;4927025;29;20400;-63
2023/07/21 06:55:35;;;;;;;4.03;2.10;;;;;;;17.57;88.29;101050.59;4918051;29;20108;-63
2023/07/21 06:58:01;;;;;;;4.25;2.08;;;;;;;17.69;90.34;101050.94;4912319;29;20106;-64
2023/07/21 07:00:30;;;;;;;3.35;2.25;;;;;;;17.77;91.85;101042.84;4912195;29;20043;-63
2023/07/21 07:02:57;;;;;;;5.40;2.50;;;;;;;17.81;87.73;101041.47;4926637;29;20062;-63
2023/07/21 07:05:23;;;;;;;4.60;2.35;;;;;;;17.90;85.49;101048.34;4916143;29;20059;-65
2023/07/21 07:07:53;;;;;;;4.97;2.15;;;;;;;17.92;83.00;101041.00;4909301;29;20233;-65
2023/07/21 07:10:19;;;;;;;2.63;1.83;;;;;;;18.07;83.02;101040.09;4924906;29;20064;-64
2023/07/21 07:12:46;;;;;;;6.20;2.20;;;;;;;18.17;82.14;101035.31;4897948;29;20556;-64
2023/07/21 07:15:12;;;;;;;4.03;1.98;;;;;;;18.36;84.18;101039.94;4925774;29;20051;-66
2023/07/21 07:17:39;;;;;;;3.33;1.98;;;;;;;18.49;82.85;101033.94;4917760;29;20160;-66
2023/07/21 07:20:09;;;;;;;3.97;2.10;;;;;;;18.59;82.14;101030.94;4927075;29;20063;-64
2023/07/21 07:22:36;;;;;;;5.63;1.80;;;;;;;18.69;77.21;101030.59;4919144;29;20056;-64
2023/07/21 07:25:03;;;;;;;4.50;1.88;;;;;;;18.86;79.64;101028.47;4917991;29;20079;-64
2023/07/21 07:27:30;;;;;;;2.80;1.90;;;;;;;19.00;79.22;101027.53;4914459;29;20135;-64
2023/07/21 07:29:57;;;;;;;3.88;1.88;;;;;;;19.01;73.57;101023.84;4920960;29;20549;-64
2023/07/21 07:32:23;;;;;;;5.47;1.73;;;;;;;19.04;73.33;101028.75;4926720;29;20082;-64
2023/07/21 07:34:55;;;;;;;6.10;1.90;;;;;;;19.09;73.51;101036.13;4922738;28;20122;-65
2023/07/21 07:37:23;;;;;;;5.20;1.95;;;;;;;19.22;74.40;101038.88;4922542;29;20048;-64
2023/07/21 07:39:50;;;;;;;3.80;1.60;;;;;;;19.27;73.48;101027.66;4918279;29;20564;-64
2023/07/21 07:42:16;;;;;;;4.13;1.77;;;;;;;19.29;73.51;101033.59;4925700;29;20815;-64
2023/07/21 07:44:43;;;;;;;2.67;1.67;;;;;;;19.44;74.41;101028.91;4915967;29;20071;-64
2023/07/21 07:47:09;;;;;;;2.15;1.58;;;;;;;19.58;71.14;101028.97;4921504;28;20056;-66
2023/07/21 07:49:36;;;;;;;3.78;1.95;;;;;;;19.65;70.11;101035.94;4929690;29;20056;-64
2023/07/21 07:52:02;;;;;;;4.60;1.90;;;;;;;19.68;68.47;101026.72;4915212;28;20138;-63
2023/07/21 07:54:29;;;;;;;2.10;1.50;;;;;;;19.93;70.10;101027.84;4920576;29;20803;-63
2023/07/21 07:56:56;;;;;;;2.20;1.50;;;;;;;20.12;69.29;101028.88;4920752;28;20139;-65
2023/07/21 07:59:22;;;;;;;2.03;1.27;;;;;;;20.21;67.69;101028.66;4930103;29;20424;-65
2023/07/21 08:01:49;;;;;;;2.83;1.50;;;;;;;20.18;66.80;101024.56;4926071;29;20060;-64
2023/07/21 08:04:15;;;;;;;3.47;1.67;;;;;;;20.11;65.91;101037.91;4917632;29;20047;-65
2023/07/21 08:06:42;;;;;;;4.00;1.70;;;;;;;20.05;64.00;101033.38;4919454;29;20058;-64
2023/07/21 08:09:10;;;;;;;1.90;1.38;;;;;;;20.21;67.52;101034.81;4914109;29;20048;-64
2023/07/21 08:11:37;;;;;;;3.03;1.50;;;;;;;20.40;69.09;101033.16;4927234;29;20055;-63
2023/07/21 08:14:04;;;;;;;3.13;1.42;;;;;;;20.39;64.35;101028.06;4906396;29;20556;-64
2023/07/21 08:16:31;;;;;;;3.78;1.75;;;;;;;20.43;64.76;101027.44;4924065;29;20055;-65
2023/07/21 08:18:57;;;;;;;2.75;2.10;;;;;;;20.31;62.80;101031.75;4923570;29;20063;-66
2023/07/21 08:21:24;;;;;;;4.93;2.00;;;;;;;20.27;62.97;101034.00;4912643;29;20504;-64
2023/07/21 08:23:52;;;;;;;4.10;2.05;;;;;;;20.30;63.87;101038.09;4924059;29;20047;-64
2023/07/21 08:26:19;;;;;;;2.75;1.90;;;;;;;20.38;64.20;101031.72;4922096;29;20068;-64
2023/07/21 08:28:45;;;;;;;2.53;1.80;;;;;;;20.52;65.51;101036.00;4925740;29;20489;-64
2023/07/21 08:31:12;;;;;;;3.35;2.40;;;;;;;20.60;63.77;101029.69;4911504;29;20064;-64
2023/07/21 08:33:39;;;;;;;3.70;1.95;;;;;;;20.73;65.04;101033.13;4924979;29;20063;-64
2023/07/21 08:36:06;;;;;;;3.72;2.15;;;;;;;20.79;63.47;101041.34;4922149;29;20056;-64
2023/07/21 08:38:35;;;;;;;3.05;1.98;;;;;;;20.92;63.21;101041.31;4919930;29;20090;-64
2023/07/21 08:41:08;;;;;;;2.85;1.77;;;;;;;21.06;63.40;101032.22;4924651;29;20080;-65
2023/07/21 08:43:35;;;;;;;5.07;2.50;;;;;;;21.19;61.30;101036.72;4923309;28;20052;-64
2023/07/21 08:46:06;;;;;;;5.17;1.93;;;;;;;21.48;61.93;101042.53;4924045;29;20047;-63
2023/07/21 08:48:34;;;;;;;5.35;2.75;;;;;;;21.22;60.38;101040.78;4916955;29;20485;-64
2023/07/21 08:51:01;;;;;;;5.03;2.80;;;;;;;21.12;61.16;101041.25;4924809;29;20087;-65
2023/07/21 08:53:27;;;;;;;5.72;3.10;;;;;;;21.14;60.71;101039.19;4927580;29;20054;-62
2023/07/21 08:55:55;;;;;;;3.58;2.78;;;;;;;21.30;60.98;101029.88;4916759;29;20056;-63
2023/07/21 08:58:23;;;;;;;3.42;2.63;;;;;;;21.52;61.85;101033.91;4927348;29;20083;-64
2023/07/21 09:00:54;;;;;;;5.63;2.65;;;;;;;21.70;62.31;101030.53;4916885;29;20115;-63
2023/07/21 09:03:26;;;;;;;5.03;3.20;;;;;;;21.85;62.00;101035.53;4921547;29;20055;-64
2023/07/21 09:05:56;;;;;;;6.47;2.83;;;;;;;21.91;59.98;101033.88;4921764;29;20079;-64
2023/07/21 09:08:27;;;;;;;4.13;3.30;;;;;;;22.06;58.89;101031.69;4926925;29;20482;-63
2023/07/21 09:11:01;;;;;;;4.45;3.50;;;;;;;22.00;58.20;101034.44;4925793;29;20048;-63
2023/07/21 09:13:28;;;;;;;7.65;3.70;;;;;;;21.98;58.69;101037.31;4914670;29;20169;-65
2023/07/21 09:16:00;;;;;;;4.53;2.95;;;;;;;22.06;57.80;101030.88;4917771;29;20134;-63
2023/07/21 09:18:34;;;;;;;5.03;2.67;;;;;;;22.45;59.81;101035.09;4919914;28;20063;-63
2023/07/21 09:21:01;;;;;;;4.90;2.70;;;;;;;22.56;55.92;101041.59;4909582;29;20051;-63
2023/07/21 09:23:29;;;;;;;4.63;2.83;;;;;;;22.75;57.17;101025.56;4923731;28;20051;-63
2023/07/21 09:25:58;;;;;;;5.63;3.17;;;;;;;22.86;53.81;101030.97;4925626;29;20044;-63
2023/07/21 09:28:40;;;;;;;;;;;;;;;22.87;54.77;101034.47;4922327;29;20449;-64
2023/07/21 09:31:07;;;;;;;9.57;3.65;;;;;;;22.86;53.58;101028.31;4914211;29;20392;-65
2023/07/21 09:33:45;;;;;;;4.40;3.30;;;;;;;23.01;52.52;101032.47;4926002;29;20047;-65
2023/07/21 09:36:15;;;;;;;6.53;3.28;;;;;;;23.34;52.89;101020.56;4916449;29;20067;-63
2023/07/21 09:38:43;;;;;;;4.93;2.90;;;;;;;23.27;50.67;101026.81;4927551;29;20075;-63
2023/07/21 09:41:12;;;;;;;;;;;;;;;23.12;52.18;101025.59;4919787;29;20839;-64
2023/07/21 09:43:39;;;;;;;4.63;2.60;;;;;;;23.09;50.07;101022.31;4919381;29;20524;-66
2023/07/21 09:46:07;;;;;;;3.20;2.70;;;;;;;22.96;49.07;101019.75;4914334;29;20595;-63
2023/07/21 09:48:37;;;;;;;6.53;3.40;;;;;;;22.60;51.19;101025.91;4924913;29;20062;-63
2023/07/21 09:51:07;;;;;;;5.63;3.15;;;;;;;22.35;53.97;101023.28;4926139;29;20135;-62
2023/07/21 09:53:39;;;;;;;4.72;2.55;;;;;;;22.47;55.15;101025.00;4920236;29;20056;-63
2023/07/21 09:56:08;;;;;;;5.22;3.10;;;;;;;22.69;53.07;101017.38;4921513;29;20079;-63
2023/07/21 09:58:42;;;;;;;4.25;3.25;;;;;;;22.94;53.05;101015.69;4913730;29;20497;-63
2023/07/21 10:01:12;;;;;;;7.65;3.80;;;;;;;23.29;50.84;101014.03;4916360;29;20058;-64
2023/07/21 10:03:41;;;;;;;4.57;3.50;;;;;;;23.20;51.19;101015.38;4919609;28;20222;-65
2023/07/21 10:06:09;;;;;;;4.20;2.85;;;;;;;23.31;50.82;101019.16;4917158;29;20095;-64
2023/07/21 10:08:37;;;;;;;3.40;3.05;;;;;;;23.22;47.69;101021.31;4921967;28;20782;-65
2023/07/21 10:11:05;;;;;;;3.65;2.70;;;;;;;23.34;49.51;101009.84;4917737;29;20047;-64
2023/07/21 10:13:33;;;;;;;3.88;2.42;;;;;;;23.30;48.71;101007.63;4924054;29;20489;-65
2023/07/21 10:16:01;;;;;;;5.20;2.37;;;;;;;23.43;48.26;101006.63;4918114;29;20369;-64
2023/07/21 10:18:28;;;;;;;3.97;2.00;;;;;;;23.55;47.34;101009.34;4926201;29;20114;-64
2023/07/21 10:20:56;;;;;;;4.25;1.98;;;;;;;23.34;46.67;100997.28;4918268;29;20580;-64
2023/07/21 10:23:34;;;;;;;3.42;1.45;;;;;;;23.09;45.50;100998.25;4903650;29;20493;-64
2023/07/21 10:26:02;;;;;;;;;;;;;;;23.36;47.17;101011.25;4914413;29;21148;-64
2023/07/21 10:28:37;;;;;;;;;;;;;;;23.72;45.70;100996.13;4924973;29;19930;-64
2023/07/21 10:34:10;;;;;;;3.38;1.92;;;;;;;24.48;44.22;100994.47;4922945;29;20651;-64
2023/07/21 10:36:51;;;;;;;2.38;1.40;;;;;;;24.28;43.34;100989.44;4920628;29;20146;-66
2023/07/21 10:39:23;;;;;;;5.78;3.35;;;;;;;24.16;47.33;100999.34;4919451;29;20055;-64
2023/07/21 10:41:52;;;;;;;5.13;3.80;;;;;;;24.19;48.49;100990.06;4924244;29;20051;-63
2023/07/21 10:44:19;;;;;;;4.43;3.00;;;;;;;24.14;47.86;100993.41;4915093;29;20084;-65
2023/07/21 10:46:48;;;;;;;5.40;2.78;;;;;;;24.23;48.89;100981.31;4923878;29;20401;-64
2023/07/21 10:49:17;;;;;;;4.50;2.90;;;;;;;24.32;47.29;100992.47;4916037;29;20536;-65
2023/07/21 10:51:47;;;;;;;4.13;2.60;;;;;;;24.11;47.24;100998.41;4918335;29;20118;-65
2023/07/21 10:54:14;;;;;;;5.38;2.70;;;;;;;24.10;46.89;100996.81;4923020;29;20467;-63
2023/07/21 10:56:43;;;;;;;3.53;2.45;;;;;;;23.69;46.61;101002.75;4915875;29;20059;-64
2023/07/21 10:59:10;;;;;;;4.25;2.70;;;;;;;23.59;48.56;101002.50;4929165;29;20074;-65
2023/07/21 11:01:46;;;;;;;3.88;2.58;;;;;;;24.22;50.57;101005.66;4918314;29;20089;-62
2023/07/21 11:04:15;;;;;;;3.40;2.40;;;;;;;24.60;49.12;100994.50;4920784;29;20520;-66
2023/07/21 11:06:42;;;;;;;2.95;2.00;;;;;;;24.74;46.78;100997.72;4915011;29;20063;-64
2023/07/21 11:09:12;;;;;;;3.03;1.80;;;;;;;25.16;47.52;100996.66;4928741;29;20060;-65
2023/07/21 11:11:39;;;;;;;6.38;2.53;;;;;;;25.56;45.49;100990.44;4930376;29;20051;-64
2023/07/21 11:14:10;;;;;;;3.00;1.90;;;;;;;24.95;42.46;100993.59;4918605;29;20493;-63
2023/07/21 11:16:55;;;;;;;2.35;1.60;;;;;;;24.40;42.15;100991.31;4919944;29;20099;-65
2023/07/21 11:19:24;;;;;;;3.03;1.60;;;;;;;24.58;42.88;100991.22;4911886;29;20059;-65
2023/07/21 11:21:51;;;;;;;2.45;1.60;;;;;;;24.34;43.05;100987.69;4922933;29;20052;-65
2023/07/21 11:24:25;;;;;;;2.35;1.50;;;;;;;24.71;43.61;100976.72;4922014;29;20054;-63
2023/07/21 11:26:59;;;;;;;3.10;1.45;;;;;;;24.81;42.36;100971.56;4912766;29;20513;-63
2023/07/21 11:29:29;;;;;;;1.75;1.30;;;;;;;24.88;44.13;100986.72;4923996;29;20056;-63